createdAt,value
2022-09-16T00:01:45.808Z,1.30
2022-09-16T00:04:12.853Z,1.38
2022-09-16T00:06:39.868Z,1.10
2022-09-16T00:09:06.950Z,0.98
2022-09-16T00:11:34.462Z,1.27
2022-09-16T00:14:01.559Z,1.33
2022-09-16T00:16:29.618Z,1.70
2022-09-16T00:18:57.971Z,1.45
2022-09-16T00:21:25.393Z,1.25
2022-09-16T00:23:52.494Z,1.05
2022-09-16T00:26:19.711Z,0.70
2022-09-16T00:28:49.646Z,1.17
2022-09-16T00:31:17.006Z,1.35
2022-09-16T00:33:44.152Z,1.00
2022-09-16T00:36:11.406Z,1.20
2022-09-16T00:38:39.113Z,1.17
2022-09-16T00:41:06.728Z,1.33
2022-09-16T00:43:56.944Z,1.30
2022-09-16T00:46:27.382Z,1.35
2022-09-16T00:48:54.536Z,1.10
2022-09-16T00:51:22.352Z,1.52
2022-09-16T00:53:52.570Z,1.70
2022-09-16T00:56:24.230Z,1.25
2022-09-16T00:59:04.002Z,1.40
2022-09-16T01:01:31.982Z,1.17
2022-09-16T01:04:12.822Z,1.52
2022-09-16T01:06:40.649Z,1.52
2022-09-16T01:09:07.691Z,1.48
2022-09-16T01:11:34.683Z,1.42
2022-09-16T01:14:22.194Z,1.50
2022-09-16T01:16:58.019Z,1.60
2022-09-16T01:19:44.410Z,1.40
2022-09-16T01:22:11.402Z,1.48
2022-09-16T01:24:50.039Z,1.60
2022-09-16T01:27:35.475Z,1.50
2022-09-16T01:30:40.952Z,1.40
2022-09-16T01:33:13.788Z,1.40
2022-09-16T01:35:55.568Z,1.80
2022-09-16T01:38:28.332Z,1.67
2022-09-16T01:41:10.456Z,1.60
2022-09-16T01:43:54.764Z,1.67
2022-09-16T01:46:25.221Z,1.38
2022-09-16T01:48:56.504Z,1.70
2022-09-16T01:51:23.494Z,1.55
2022-09-16T01:54:13.523Z,1.45
2022-09-16T01:56:40.534Z,1.95
2022-09-16T01:59:22.681Z,1.90
2022-09-16T02:01:53.651Z,1.65
2022-09-16T02:04:24.270Z,2.00
2022-09-16T02:06:52.533Z,2.10
2022-09-16T02:09:25.132Z,1.90
2022-09-16T02:11:54.701Z,1.92
2022-09-16T02:14:23.666Z,2.10
2022-09-16T02:17:05.410Z,2.05
2022-09-16T02:19:42.464Z,1.95
2022-09-16T02:22:12.245Z,1.85
2022-09-16T02:24:41.143Z,2.30
2022-09-16T02:27:11.389Z,1.70
2022-09-16T02:29:40.549Z,2.10
2022-09-16T02:32:08.844Z,1.58
2022-09-16T02:34:44.211Z,1.63
2022-09-16T02:37:15.870Z,1.88
2022-09-16T02:39:45.378Z,1.60
2022-09-16T02:42:12.406Z,1.50
2022-09-16T02:44:39.499Z,2.17
2022-09-16T02:47:18.489Z,1.60
2022-09-16T02:49:45.472Z,2.00
2022-09-16T02:52:15.665Z,2.20
2022-09-16T02:55:01.192Z,2.08
2022-09-16T02:57:28.231Z,1.90
2022-09-16T02:59:55.516Z,1.60
2022-09-16T03:02:22.847Z,1.98
2022-09-16T03:04:49.884Z,1.70
2022-09-16T03:07:17.303Z,1.70
2022-09-16T03:09:45.158Z,2.08
2022-09-16T03:12:22.476Z,1.88
2022-09-16T03:15:09.784Z,2.05
2022-09-16T03:17:48.298Z,1.73
2022-09-16T03:20:21.756Z,1.73
2022-09-16T03:22:58.742Z,2.00
2022-09-16T03:25:28.740Z,1.98
2022-09-16T03:27:55.723Z,2.20
2022-09-16T03:30:22.729Z,2.42
2022-09-16T03:32:54.147Z,2.63
2022-09-16T03:35:29.448Z,2.60
2022-09-16T03:37:58.027Z,2.42
2022-09-16T03:40:25.342Z,2.70
2022-09-16T03:42:52.520Z,2.20
2022-09-16T03:45:21.161Z,2.30
2022-09-16T03:47:49.642Z,2.40
2022-09-16T03:50:16.800Z,2.30
2022-09-16T03:52:43.821Z,2.60
2022-09-16T03:55:11.349Z,2.88
2022-09-16T03:57:38.645Z,2.88
2022-09-16T04:00:07.996Z,2.35
2022-09-16T04:02:35.667Z,2.30
2022-09-16T04:05:02.757Z,2.45
2022-09-16T04:07:29.765Z,2.47
2022-09-16T04:09:56.824Z,2.22
2022-09-16T04:12:23.833Z,2.28
2022-09-16T04:14:50.823Z,2.33
2022-09-16T04:17:17.901Z,2.55
2022-09-16T04:19:44.962Z,2.60
2022-09-16T04:22:11.967Z,2.10
2022-09-16T04:24:39.222Z,2.28
2022-09-16T04:27:06.257Z,2.20
2022-09-16T04:29:33.322Z,2.50
2022-09-16T04:32:00.365Z,2.40
2022-09-16T04:34:27.539Z,2.65
2022-09-16T04:36:54.540Z,2.13
2022-09-16T04:39:22.054Z,2.17
2022-09-16T04:41:49.241Z,2.42
2022-09-16T04:44:16.503Z,2.20
2022-09-16T04:46:43.585Z,2.10
2022-09-16T04:49:12.740Z,2.10
2022-09-16T04:51:39.738Z,2.13
2022-09-16T04:54:06.836Z,1.83
2022-09-16T04:56:33.986Z,2.10
2022-09-16T04:59:05.135Z,2.10
2022-09-16T05:01:33.722Z,2.00
2022-09-16T05:04:02.378Z,1.65
2022-09-16T05:06:33.502Z,1.63
2022-09-16T05:09:01.228Z,1.90
2022-09-16T05:11:29.757Z,2.00
2022-09-16T05:14:02.960Z,2.33
2022-09-16T05:16:30.355Z,1.83
2022-09-16T05:18:58.592Z,1.48
2022-09-16T05:21:27.206Z,1.73
2022-09-16T05:23:55.842Z,1.73
2022-09-16T05:26:24.602Z,1.58
2022-09-16T05:28:53.215Z,1.98
2022-09-16T05:31:21.956Z,1.85
2022-09-16T05:34:09.269Z,1.90
2022-09-16T05:36:39.852Z,2.03
2022-09-16T05:39:24.651Z,1.45
2022-09-16T05:41:59.249Z,1.83
2022-09-16T05:44:26.821Z,1.70
2022-09-16T05:46:54.243Z,1.60
2022-09-16T05:49:21.625Z,1.80
2022-09-16T05:51:48.956Z,1.70
2022-09-16T05:54:18.211Z,1.80
2022-09-16T05:56:45.773Z,1.70
2022-09-16T05:59:13.597Z,1.55
2022-09-16T06:01:42.289Z,1.70
2022-09-16T06:04:11.950Z,1.50
2022-09-16T06:06:43.206Z,1.70
2022-09-16T06:09:14.951Z,1.80
2022-09-16T06:11:43.561Z,1.58
2022-09-16T06:14:10.994Z,1.58
2022-09-16T06:16:38.722Z,1.20
2022-09-16T06:19:10.306Z,1.40
2022-09-16T06:21:40.997Z,1.83
2022-09-16T06:24:08.982Z,1.70
2022-09-16T06:26:40.241Z,1.85
2022-09-16T06:29:07.839Z,2.15
2022-09-16T06:31:38.123Z,1.38
2022-09-16T06:34:05.808Z,1.90
2022-09-16T06:36:34.268Z,1.58
2022-09-16T06:39:01.663Z,1.60
2022-09-16T06:41:28.813Z,1.70
2022-09-16T06:43:55.880Z,1.70
2022-09-16T06:46:24.285Z,1.40
2022-09-16T06:48:52.540Z,1.83
2022-09-16T06:51:22.737Z,1.58
2022-09-16T06:53:50.202Z,1.60
2022-09-16T06:56:18.526Z,1.90
2022-09-16T06:58:49.723Z,1.85
2022-09-16T07:01:19.367Z,1.58
2022-09-16T07:03:47.978Z,1.50
2022-09-16T07:06:15.980Z,1.63
2022-09-16T07:08:43.547Z,1.60
2022-09-16T07:11:20.971Z,1.70
2022-09-16T07:13:48.866Z,2.03
2022-09-16T07:16:21.034Z,1.35
2022-09-16T07:18:48.415Z,1.45
2022-09-16T07:21:19.410Z,1.60
2022-09-16T07:23:47.159Z,1.90
2022-09-16T07:26:15.403Z,1.40
2022-09-16T07:28:43.753Z,1.42
2022-09-16T07:31:12.437Z,1.48
2022-09-16T07:33:40.567Z,1.33
2022-09-16T07:36:08.702Z,1.67
2022-09-16T07:38:35.912Z,1.48
2022-09-16T07:41:06.594Z,1.50
2022-09-16T07:43:33.646Z,1.15
2022-09-16T07:46:00.955Z,1.10
2022-09-16T07:48:34.541Z,1.23
2022-09-16T07:51:03.774Z,1.20
2022-09-16T07:53:31.084Z,1.30
2022-09-16T07:56:02.538Z,1.30
2022-09-16T07:58:29.773Z,1.17
2022-09-16T08:01:00.645Z,1.08
2022-09-16T08:03:30.535Z,0.82
2022-09-16T08:06:05.705Z,0.90
2022-09-16T08:08:32.897Z,1.15
2022-09-16T08:11:00.670Z,1.00
2022-09-16T08:13:29.181Z,1.25
2022-09-16T08:15:56.574Z,1.30
2022-09-16T08:18:23.674Z,0.90
2022-09-16T08:20:50.689Z,1.35
2022-09-16T08:23:18.196Z,1.10
2022-09-16T08:25:45.523Z,0.80
2022-09-16T08:28:13.327Z,1.30
2022-09-16T08:30:40.321Z,1.42
2022-09-16T08:33:07.384Z,1.08
2022-09-16T08:35:34.417Z,1.00
2022-09-16T08:38:01.468Z,1.10
2022-09-16T08:40:29.793Z,1.40
2022-09-16T08:43:01.042Z,1.40
2022-09-16T08:45:31.180Z,1.10
2022-09-16T08:48:08.045Z,1.13
2022-09-16T08:50:38.068Z,1.38
2022-09-16T08:53:08.048Z,1.23
2022-09-16T08:55:39.402Z,1.45
2022-09-16T08:58:20.247Z,1.25
2022-09-16T09:00:49.758Z,1.45
2022-09-16T09:03:19.896Z,1.40
2022-09-16T09:05:57.147Z,1.20
2022-09-16T09:08:33.261Z,1.38
2022-09-16T09:11:03.281Z,1.13
2022-09-16T09:13:39.378Z,1.00
2022-09-16T09:16:20.223Z,1.08
2022-09-16T09:18:54.560Z,0.90
2022-09-16T09:21:27.761Z,1.13
2022-09-16T09:23:57.664Z,0.80
2022-09-16T09:26:36.811Z,0.90
2022-09-16T09:29:12.963Z,1.30
2022-09-16T09:31:46.074Z,1.08
2022-09-16T09:34:13.112Z,0.95
2022-09-16T09:36:40.357Z,0.80
2022-09-16T09:39:10.364Z,1.08
2022-09-16T09:41:46.507Z,0.70
2022-09-16T09:44:32.629Z,1.10
2022-09-16T09:47:02.651Z,0.85
2022-09-16T09:49:31.910Z,0.73
2022-09-16T09:52:04.883Z,0.90
2022-09-16T09:54:34.611Z,0.70
2022-09-16T09:57:06.681Z,1.00
2022-09-16T09:59:39.511Z,1.05
2022-09-16T10:02:15.199Z,1.08
2022-09-16T10:04:42.419Z,1.13
2022-09-16T10:07:10.486Z,1.08
2022-09-16T10:09:37.689Z,0.98
2022-09-16T10:12:05.336Z,1.00
2022-09-16T10:14:35.138Z,0.80
2022-09-16T10:17:03.197Z,0.93
2022-09-16T10:19:30.836Z,1.10
2022-09-16T10:22:09.806Z,0.80
2022-09-16T10:24:38.101Z,0.90
2022-09-16T10:27:23.415Z,0.80
2022-09-16T10:30:03.737Z,0.88
2022-09-16T10:32:31.461Z,0.60
2022-09-16T10:34:58.525Z,0.90
2022-09-16T10:37:27.761Z,0.80
2022-09-16T10:39:56.062Z,0.90
2022-09-16T10:42:24.732Z,1.00
2022-09-16T10:44:53.025Z,0.80
2022-09-16T10:47:24.988Z,0.88
2022-09-16T10:49:53.620Z,0.80
2022-09-16T10:52:25.303Z,0.90
2022-09-16T10:54:53.503Z,0.95
2022-09-16T10:57:28.933Z,0.82
2022-09-16T11:00:14.790Z,0.85
2022-09-16T11:02:47.575Z,0.75
2022-09-16T11:05:25.545Z,0.93
2022-09-16T11:08:00.788Z,0.90
2022-09-16T11:10:45.589Z,0.82
2022-09-16T11:13:15.409Z,1.10
2022-09-16T11:16:01.287Z,0.80
2022-09-16T11:18:31.579Z,0.70
2022-09-16T11:21:01.531Z,0.73
2022-09-16T11:23:37.960Z,0.50
2022-09-16T11:26:05.143Z,0.55
2022-09-16T11:28:43.972Z,0.80
2022-09-16T11:31:11.106Z,0.70
2022-09-16T11:33:55.987Z,0.68
2022-09-16T11:36:32.277Z,0.38
2022-09-16T11:39:09.823Z,0.80
2022-09-16T11:41:41.019Z,0.68
2022-09-16T11:44:16.049Z,0.75
2022-09-16T11:46:49.113Z,0.50
2022-09-16T11:49:22.185Z,0.50
2022-09-16T11:51:49.425Z,0.50
2022-09-16T11:54:35.357Z,0.57
2022-09-16T11:57:10.883Z,0.30
2022-09-16T11:59:43.238Z,0.82
2022-09-16T12:02:28.951Z,0.70
2022-09-16T12:05:00.229Z,0.70
2022-09-16T12:07:33.627Z,0.85
2022-09-16T12:10:03.780Z,0.88
2022-09-16T12:12:34.070Z,0.45
2022-09-16T12:15:05.795Z,0.60
2022-09-16T12:17:35.488Z,0.50
2022-09-16T12:20:31.644Z,0.40
2022-09-16T12:23:19.124Z,0.60
2022-09-16T12:25:56.880Z,0.70
2022-09-16T12:28:24.553Z,0.73
2022-09-16T12:30:59.399Z,0.55
2022-09-16T12:33:33.141Z,0.57
2022-09-16T12:36:03.130Z,0.60
2022-09-16T12:38:30.921Z,0.90
2022-09-16T12:41:13.526Z,0.95
2022-09-16T12:43:59.017Z,0.70
2022-09-16T12:46:35.078Z,0.93
2022-09-16T12:49:03.308Z,0.85
2022-09-16T12:51:44.174Z,0.60
2022-09-16T12:54:45.947Z,0.73
2022-09-16T12:57:24.313Z,0.93
2022-09-16T13:00:27.176Z,0.93
2022-09-16T13:03:00.114Z,0.85
2022-09-16T13:05:33.417Z,0.88
2022-09-16T13:08:05.470Z,0.52
2022-09-16T13:10:54.692Z,0.70
2022-09-16T13:13:28.415Z,0.60
2022-09-16T13:15:56.799Z,0.75
2022-09-16T13:18:28.956Z,0.82
2022-09-16T13:21:07.408Z,0.90
2022-09-16T13:23:35.416Z,0.65
2022-09-16T13:26:05.184Z,0.52
2022-09-16T13:28:38.226Z,0.88
2022-09-16T13:31:15.107Z,1.20
2022-09-16T13:33:43.905Z,1.20
2022-09-16T13:36:17.597Z,1.25
2022-09-16T13:38:45.903Z,0.93
2022-09-16T13:41:14.303Z,1.00
2022-09-16T13:43:44.309Z,0.90
2022-09-16T13:46:16.105Z,0.63
2022-09-16T13:48:46.641Z,0.80
2022-09-16T13:51:17.361Z,0.70
2022-09-16T13:53:46.076Z,1.10
2022-09-16T13:56:45.805Z,1.17
2022-09-16T13:59:15.843Z,0.50
2022-09-16T14:01:59.735Z,0.70
2022-09-16T14:04:30.046Z,0.50
2022-09-16T14:07:29.424Z,0.82
2022-09-16T14:10:01.453Z,0.30
2022-09-16T14:12:36.533Z,0.57
2022-09-16T14:15:03.870Z,0.50
2022-09-16T14:17:41.485Z,0.70
2022-09-16T14:20:15.934Z,0.60
2022-09-16T14:22:46.385Z,0.70
2022-09-16T14:25:34.706Z,0.40
2022-09-16T14:28:17.773Z,0.60
2022-09-16T14:30:47.691Z,0.70
2022-09-16T14:33:15.337Z,0.65
2022-09-16T14:35:44.014Z,0.60
2022-09-16T14:41:03.902Z,0.70
2022-09-16T14:43:31.886Z,0.80
2022-09-16T14:46:01.003Z,0.60
2022-09-16T14:48:32.652Z,1.38
2022-09-16T14:50:59.957Z,0.65
2022-09-16T14:53:35.280Z,0.80
2022-09-16T14:56:03.867Z,0.90
2022-09-16T14:58:32.682Z,1.00
2022-09-16T15:01:09.050Z,0.90
2022-09-16T15:03:42.217Z,0.93
2022-09-16T15:06:12.267Z,0.80
2022-09-16T15:08:47.277Z,1.13
2022-09-16T15:11:30.009Z,0.90
2022-09-16T15:14:06.960Z,1.10
2022-09-16T15:16:34.280Z,0.98
2022-09-16T15:19:02.979Z,0.95
2022-09-16T15:21:37.983Z,0.70
2022-09-16T15:24:06.677Z,0.90
2022-09-16T15:26:43.999Z,1.08
2022-09-16T15:29:22.884Z,1.10
2022-09-16T15:31:50.771Z,0.80
2022-09-16T15:34:20.801Z,0.90
2022-09-16T15:36:49.120Z,0.80
2022-09-16T15:39:29.487Z,1.10
2022-09-16T15:42:06.030Z,0.80
2022-09-16T15:44:37.299Z,1.00
2022-09-16T15:47:04.899Z,1.00
2022-09-16T15:49:34.909Z,0.90
2022-09-16T15:52:09.699Z,0.73
2022-09-16T15:54:56.987Z,1.17
2022-09-16T15:57:29.970Z,1.27
2022-09-16T16:00:23.373Z,1.10
2022-09-16T16:02:56.217Z,1.30
2022-09-16T16:05:25.004Z,1.50
2022-09-16T16:07:55.616Z,1.13
2022-09-16T16:10:24.401Z,1.38
2022-09-16T16:12:51.928Z,1.20
2022-09-16T16:15:23.597Z,1.10
2022-09-16T16:17:51.081Z,1.20
2022-09-16T16:20:18.593Z,1.50
2022-09-16T16:22:46.256Z,1.60
2022-09-16T16:25:14.106Z,1.20
2022-09-16T16:27:42.786Z,1.48
2022-09-16T16:30:10.109Z,1.38
2022-09-16T16:32:38.501Z,1.00
2022-09-16T16:35:05.954Z,1.25
2022-09-16T16:37:48.404Z,1.38
2022-09-16T16:40:16.198Z,1.02
2022-09-16T16:42:44.190Z,1.10
2022-09-16T16:45:14.929Z,1.02
2022-09-16T16:47:42.754Z,1.40
2022-09-16T16:50:10.043Z,1.30
2022-09-16T16:52:37.549Z,1.30
2022-09-16T16:55:04.909Z,1.70
2022-09-16T16:57:33.633Z,0.90
2022-09-16T17:00:00.718Z,1.08
2022-09-16T17:02:27.800Z,1.20
2022-09-16T17:04:59.780Z,0.95
2022-09-16T17:07:28.115Z,1.30
2022-09-16T17:09:57.221Z,0.95
2022-09-16T17:12:24.273Z,1.10
2022-09-16T17:14:51.299Z,1.23
2022-09-16T17:17:18.354Z,1.05
2022-09-16T17:19:45.410Z,0.98
2022-09-16T17:22:15.902Z,1.10
2022-09-16T17:24:42.918Z,1.05
2022-09-16T17:27:09.937Z,1.42
2022-09-16T17:29:36.970Z,1.27
2022-09-16T17:32:04.058Z,0.95
2022-09-16T17:34:31.360Z,1.00
2022-09-16T17:36:58.687Z,1.30
2022-09-16T17:39:25.809Z,1.10
2022-09-16T17:41:54.325Z,0.93
2022-09-16T17:44:21.394Z,1.05
2022-09-16T17:46:48.441Z,1.20
2022-09-16T17:49:17.266Z,1.15
2022-09-16T17:51:44.675Z,1.30
2022-09-16T17:54:11.957Z,1.30
2022-09-16T17:56:39.042Z,1.05
2022-09-16T17:59:06.161Z,0.82
2022-09-16T18:01:33.273Z,0.95
2022-09-16T18:04:01.599Z,1.30
2022-09-16T18:06:30.779Z,1.10
2022-09-16T18:09:00.859Z,1.27
2022-09-16T18:11:28.082Z,1.15
2022-09-16T18:13:56.135Z,1.30
2022-09-16T18:16:23.868Z,1.10
2022-09-16T18:18:52.278Z,1.27
2022-09-16T18:21:19.785Z,1.15
2022-09-16T18:23:49.579Z,1.25
2022-09-16T18:26:18.653Z,1.13
2022-09-16T18:29:17.899Z,2.58
2022-09-16T18:31:34.762Z,1.13
2022-09-16T18:34:01.790Z,2.30
2022-09-16T18:36:30.123Z,1.40
2022-09-16T18:38:58.117Z,1.27
2022-09-16T18:41:26.440Z,1.45
2022-09-16T18:43:57.926Z,1.30
2022-09-16T18:46:29.141Z,1.50
2022-09-16T18:48:56.554Z,1.60
2022-09-16T18:51:24.926Z,1.48
2022-09-16T18:53:52.861Z,1.52
2022-09-16T18:56:21.274Z,1.08
2022-09-16T18:59:16.829Z,1.50
2022-09-16T19:01:36.852Z,1.23
2022-09-16T19:04:08.941Z,1.23
2022-09-16T19:06:37.709Z,1.48
2022-09-16T19:09:06.475Z,1.10
2022-09-16T19:11:34.146Z,1.30
2022-09-16T19:14:01.629Z,1.20
2022-09-16T19:16:30.928Z,1.38
2022-09-16T19:18:58.111Z,1.48
2022-09-16T19:21:25.554Z,1.30
2022-09-16T19:23:58.414Z,1.42
2022-09-16T19:26:26.762Z,1.48
2022-09-16T19:28:53.775Z,1.17
2022-09-16T19:31:20.905Z,1.50
2022-09-16T19:33:48.238Z,1.40
2022-09-16T19:36:16.797Z,1.13
2022-09-16T19:38:43.943Z,1.33
2022-09-16T19:41:11.269Z,1.10
2022-09-16T19:43:38.329Z,1.40
2022-09-16T19:46:06.618Z,1.10
2022-09-16T19:48:34.946Z,1.10
2022-09-16T19:51:01.980Z,1.42
2022-09-16T19:53:29.089Z,1.02
2022-09-16T19:56:00.225Z,1.20
2022-09-16T19:58:28.038Z,1.30
2022-09-16T20:00:59.229Z,1.30
2022-09-16T20:03:26.608Z,1.20
2022-09-16T20:06:04.079Z,1.77
2022-09-16T20:08:31.606Z,1.48
2022-09-16T20:11:03.004Z,1.52
2022-09-16T20:13:31.032Z,1.15
2022-09-16T20:15:58.916Z,1.45
2022-09-16T20:18:27.794Z,1.20
2022-09-16T20:21:00.347Z,1.10
2022-09-16T20:23:27.431Z,1.40
2022-09-16T20:25:55.429Z,1.67
2022-09-16T20:28:22.824Z,1.30
2022-09-16T20:30:50.338Z,1.30
2022-09-16T20:33:17.429Z,1.52
2022-09-16T20:35:44.490Z,1.10
2022-09-16T20:38:11.496Z,1.40
2022-09-16T20:40:38.548Z,1.60
2022-09-16T20:43:05.580Z,0.95
2022-09-16T20:45:32.653Z,1.75
2022-09-16T20:47:59.780Z,1.20
2022-09-16T20:50:26.787Z,1.40
2022-09-16T20:52:53.799Z,1.38
2022-09-16T20:55:21.260Z,1.15
2022-09-16T20:57:51.055Z,1.40
2022-09-16T21:00:18.106Z,1.20
2022-09-16T21:02:45.208Z,1.35
2022-09-16T21:05:12.465Z,1.40
2022-09-16T21:07:39.500Z,1.42
2022-09-16T21:10:07.532Z,1.20
2022-09-16T21:12:37.884Z,1.63
2022-09-16T21:15:05.130Z,1.60
2022-09-16T21:17:32.137Z,2.10
2022-09-16T21:19:59.168Z,1.27
2022-09-16T21:22:26.158Z,1.58
2022-09-16T21:24:53.225Z,1.90
2022-09-16T21:27:20.236Z,1.58
2022-09-16T21:29:48.867Z,1.65
2022-09-16T21:32:15.901Z,1.50
2022-09-16T21:34:42.918Z,1.60
2022-09-16T21:37:09.938Z,1.50
2022-09-16T21:39:37.359Z,2.03
2022-09-16T21:42:05.388Z,2.00
2022-09-16T21:44:32.668Z,1.70
2022-09-16T21:46:59.878Z,1.92
2022-09-16T21:49:28.968Z,2.00
2022-09-16T21:51:57.192Z,1.80
2022-09-16T21:54:24.921Z,1.40
2022-09-16T21:56:52.292Z,1.58
2022-09-16T21:59:20.006Z,1.52
2022-09-16T22:01:47.518Z,1.73
2022-09-16T22:04:16.216Z,1.90
2022-09-16T22:06:44.156Z,1.58
2022-09-16T22:09:11.734Z,1.52
2022-09-16T22:11:40.706Z,1.80
2022-09-16T22:14:08.060Z,1.60
2022-09-16T22:16:37.350Z,1.60
2022-09-16T22:19:08.685Z,1.70
2022-09-16T22:21:36.906Z,1.45
2022-09-16T22:24:04.426Z,1.90
2022-09-16T22:26:31.858Z,1.25
2022-09-16T22:28:59.152Z,1.70
2022-09-16T22:31:30.617Z,1.60
2022-09-16T22:34:00.169Z,1.65
2022-09-16T22:36:28.973Z,1.70
2022-09-16T22:38:56.981Z,1.13
2022-09-16T22:41:24.944Z,1.55
2022-09-16T22:43:52.995Z,1.70
2022-09-16T22:46:20.010Z,1.67
2022-09-16T22:48:47.661Z,1.40
2022-09-16T22:51:15.913Z,1.52
2022-09-16T22:53:43.373Z,1.70
2022-09-16T22:56:11.840Z,1.30
2022-09-16T22:58:38.950Z,1.45
2022-09-16T23:01:11.141Z,1.90
2022-09-16T23:03:38.730Z,1.60
2022-09-16T23:06:07.092Z,1.77
2022-09-16T23:08:35.540Z,1.50
2022-09-16T23:11:04.133Z,1.35
2022-09-16T23:13:33.200Z,1.35
2022-09-16T23:16:01.997Z,1.77
2022-09-16T23:18:30.971Z,1.60
2022-09-16T23:21:17.629Z,1.48
2022-09-16T23:23:45.938Z,1.50
2022-09-16T23:26:14.149Z,1.50
2022-09-16T23:28:41.266Z,1.52
2022-09-16T23:31:09.810Z,1.58
2022-09-16T23:33:36.890Z,1.95
2022-09-16T23:36:04.522Z,1.60
2022-09-16T23:38:31.946Z,1.70
2022-09-16T23:41:04.803Z,1.40
2022-09-16T23:43:32.155Z,2.28
2022-09-16T23:46:01.933Z,1.70
2022-09-16T23:48:29.535Z,1.70
2022-09-16T23:50:56.810Z,2.00
2022-09-16T23:53:23.872Z,2.28
2022-09-16T23:55:50.914Z,1.90
2022-09-16T23:58:18.435Z,1.70
